createdAt,value
2023-03-23T15:58:27.266Z,99253.19
2023-03-23T16:00:01.040Z,99258.19
2023-03-23T16:01:34.298Z,99264.31
2023-03-23T16:03:13.741Z,99249.09
2023-03-23T16:04:48.024Z,99260.34
2023-03-23T16:06:25.500Z,99253.88
2023-03-23T16:07:59.185Z,99255.75
2023-03-23T16:09:32.472Z,99255.19
2023-03-23T16:11:06.703Z,99260.31
2023-03-23T16:12:40.082Z,99253.56
2023-03-23T16:14:13.414Z,99258.66
2023-03-23T16:15:48.738Z,99254.84
2023-03-23T16:17:22.033Z,99258.91
2023-03-23T16:18:56.924Z,99257.88
2023-03-23T16:20:33.250Z,99256.19
2023-03-23T16:22:08.363Z,99261.91
2023-03-23T16:23:44.535Z,99266.19
2023-03-23T16:25:19.277Z,99266.84
2023-03-23T16:26:52.415Z,99267.19
2023-03-23T16:28:25.759Z,99263.25
2023-03-23T16:30:04.330Z,99257.22
2023-03-23T16:31:38.125Z,99257.75
2023-03-23T16:33:11.885Z,99268.72
2023-03-23T16:34:46.417Z,99261.06
2023-03-23T16:36:19.614Z,99262.50
2023-03-23T16:38:07.392Z,99262.84
2023-03-23T16:39:42.101Z,99266.75
2023-03-23T16:41:15.257Z,99252.41
2023-03-23T16:42:48.990Z,99254.44
2023-03-23T16:44:22.432Z,99242.50
2023-03-23T16:45:57.630Z,99243.69
2023-03-23T16:47:31.043Z,99252.13
2023-03-23T16:49:04.317Z,99248.06
2023-03-23T16:50:39.660Z,99255.53
2023-03-23T16:52:12.857Z,99243.66
2023-03-23T16:53:45.952Z,99252.03
2023-03-23T16:55:19.338Z,99252.41
2023-03-23T16:56:52.880Z,99260.53
2023-03-23T16:58:26.492Z,99265.31
2023-03-23T16:59:58.769Z,99266.47
2023-03-23T17:01:32.091Z,99262.38
2023-03-23T17:03:05.931Z,99259.19
2023-03-23T17:04:44.462Z,99260.47
2023-03-23T17:06:19.021Z,99260.63
2023-03-23T17:07:52.226Z,99262.19
2023-03-23T17:09:26.051Z,99265.03
2023-03-23T17:10:59.326Z,99262.66
2023-03-23T17:12:32.610Z,99266.31
2023-03-23T17:14:05.813Z,99271.72
2023-03-23T17:15:39.800Z,99273.56
2023-03-23T17:17:13.258Z,99272.00
2023-03-23T17:18:46.444Z,99275.72
2023-03-23T17:20:19.799Z,99263.81
2023-03-23T17:21:54.580Z,99273.03
2023-03-23T17:23:27.785Z,99268.13
2023-03-23T17:25:02.276Z,99270.31
2023-03-23T17:26:36.076Z,99278.56
2023-03-23T17:28:09.847Z,99273.63
2023-03-23T17:29:42.985Z,99278.28
2023-03-23T17:31:16.236Z,99284.13
2023-03-23T17:32:49.616Z,99280.81
2023-03-23T17:34:22.974Z,99280.50
2023-03-23T17:35:58.733Z,99281.50
2023-03-23T17:37:33.535Z,99282.50
2023-03-23T17:39:06.727Z,99282.63
2023-03-23T17:40:40.312Z,99284.91
2023-03-23T17:42:13.823Z,99281.72
2023-03-23T17:43:46.957Z,99285.63
2023-03-23T17:45:20.338Z,99289.38
2023-03-23T17:46:56.158Z,99288.78
2023-03-23T17:48:29.340Z,99296.06
2023-03-23T17:50:12.327Z,99299.09
2023-03-23T17:51:46.138Z,99296.69
2023-03-23T17:53:21.381Z,99312.72
2023-03-23T17:54:54.690Z,99309.28
2023-03-23T17:56:28.661Z,99305.81
2023-03-23T17:58:01.947Z,99308.47
2023-03-23T17:59:35.370Z,99295.72
2023-03-23T18:01:08.919Z,99316.91
2023-03-23T18:02:42.215Z,99319.66
2023-03-23T18:04:15.640Z,99318.97
2023-03-23T18:05:49.104Z,99323.66
2023-03-23T18:07:23.982Z,99322.72
2023-03-23T18:08:58.712Z,99334.09
2023-03-23T18:10:32.044Z,99336.97
2023-03-23T18:12:05.600Z,99334.31
2023-03-23T18:13:39.659Z,99334.47
2023-03-23T18:15:13.341Z,99324.09
2023-03-23T18:16:46.632Z,99318.91
2023-03-23T18:18:20.069Z,99338.00
2023-03-23T18:19:53.295Z,99341.69
2023-03-23T18:21:27.061Z,99340.09
2023-03-23T18:23:00.644Z,99328.97
2023-03-23T18:24:35.835Z,99332.03
2023-03-23T18:26:10.923Z,99346.41
2023-03-23T18:27:44.203Z,99349.09
2023-03-23T18:29:17.385Z,99343.00
2023-03-23T18:30:50.876Z,99346.72
2023-03-23T18:32:24.019Z,99349.66
2023-03-23T18:33:57.499Z,99344.53
2023-03-23T18:35:31.167Z,99345.47
2023-03-23T18:37:05.207Z,99343.75
2023-03-23T18:38:39.186Z,99347.28
2023-03-23T18:40:14.541Z,99342.97
2023-03-23T18:41:47.776Z,99343.06
2023-03-23T18:43:21.234Z,99350.16
2023-03-23T18:44:55.970Z,99344.94
2023-03-23T18:46:29.306Z,99347.56
2023-03-23T18:48:04.970Z,99356.56
2023-03-23T18:49:38.581Z,99348.91
2023-03-23T18:51:12.316Z,99358.00
2023-03-23T18:52:45.787Z,99358.19
2023-03-23T18:54:19.071Z,99358.22
2023-03-23T18:55:54.190Z,99359.25
2023-03-23T18:57:27.815Z,99361.94
2023-03-23T18:59:01.011Z,99357.63
2023-03-23T19:00:34.631Z,99366.56
2023-03-23T19:02:08.241Z,99373.59
2023-03-23T19:03:41.944Z,99371.97
2023-03-23T19:05:15.258Z,99376.56
2023-03-23T19:06:48.426Z,99374.16
2023-03-23T19:08:21.671Z,99370.81
2023-03-23T19:09:55.014Z,99368.50
2023-03-23T19:11:29.783Z,99371.31
2023-03-23T19:13:03.272Z,99372.22
2023-03-23T19:14:37.440Z,99380.94
2023-03-23T19:16:11.045Z,99390.88
2023-03-23T19:17:44.579Z,99389.00
2023-03-23T19:19:17.696Z,99391.50
2023-03-23T19:21:09.646Z,99390.75
2023-03-23T19:22:45.037Z,99387.50
2023-03-23T19:24:18.313Z,99390.44
2023-03-23T19:25:53.584Z,99394.94
2023-03-23T19:27:28.512Z,99387.22
2023-03-23T19:30:38.056Z,99378.72
2023-03-23T19:32:11.527Z,99376.16
2023-03-23T19:33:45.503Z,99383.16
2023-03-23T19:35:20.895Z,99384.97
2023-03-23T19:37:03.261Z,99383.16
2023-03-23T19:38:38.733Z,99386.63
2023-03-23T19:40:31.075Z,99387.47
2023-03-23T19:42:07.267Z,99377.03
2023-03-23T19:43:43.453Z,99381.28
2023-03-23T19:45:17.045Z,99382.41
2023-03-23T19:46:50.425Z,99386.03
2023-03-23T19:48:24.534Z,99397.97
2023-03-23T19:49:59.960Z,99382.50
2023-03-23T19:51:33.461Z,99388.84
2023-03-23T19:53:06.761Z,99393.50
2023-03-23T19:54:41.028Z,99386.72
2023-03-23T19:56:16.201Z,99394.41
2023-03-23T19:57:50.752Z,99393.09
2023-03-23T19:59:25.492Z,99397.72
2023-03-23T20:00:58.796Z,99383.94
2023-03-23T20:02:32.211Z,99409.25
2023-03-23T20:04:07.043Z,99398.56
2023-03-23T20:05:41.282Z,99404.78
2023-03-23T20:07:14.946Z,99413.63
2023-03-23T20:08:49.232Z,99406.72
2023-03-23T20:10:23.525Z,99403.22
2023-03-23T20:11:57.090Z,99408.53
2023-03-23T20:13:30.193Z,99400.56
2023-03-23T20:15:05.458Z,99412.75
2023-03-23T20:16:38.927Z,99415.25
2023-03-23T20:18:14.670Z,99407.31
2023-03-23T20:19:47.937Z,99415.22
2023-03-23T20:21:23.017Z,99416.13
2023-03-23T20:22:57.972Z,99417.84
2023-03-23T20:24:31.862Z,99410.94
2023-03-23T20:26:07.918Z,99420.56
2023-03-23T20:27:41.748Z,99409.31
2023-03-23T20:29:15.376Z,99411.09
2023-03-23T20:30:49.890Z,99413.00
2023-03-23T20:32:46.368Z,99427.13
2023-03-23T20:34:29.047Z,99420.16
2023-03-23T20:36:03.443Z,99419.28
2023-03-23T20:37:38.703Z,99415.78
2023-03-23T20:39:14.844Z,99417.66
2023-03-23T20:40:48.209Z,99419.41
2023-03-23T20:42:21.611Z,99414.31
2023-03-23T20:43:54.770Z,99415.16
2023-03-23T20:45:28.283Z,99413.47
2023-03-23T20:47:04.180Z,99415.25
2023-03-23T20:48:38.510Z,99415.38
2023-03-23T20:50:12.475Z,99410.25
2023-03-23T20:51:46.705Z,99408.59
2023-03-23T20:53:20.522Z,99412.94
2023-03-23T20:54:54.033Z,99406.06
2023-03-23T20:56:27.301Z,99399.94
2023-03-23T20:58:00.572Z,99405.28
2023-03-23T20:59:33.910Z,99403.69
2023-03-23T21:01:09.329Z,99402.09
2023-03-23T21:02:43.982Z,99405.63
2023-03-23T21:04:19.989Z,99407.31
2023-03-23T21:05:53.258Z,99412.56
2023-03-23T21:07:27.535Z,99408.94
2023-03-23T21:09:00.986Z,99415.94
2023-03-23T21:10:34.290Z,99407.22
2023-03-23T21:12:09.318Z,99413.50
2023-03-23T21:13:41.506Z,99419.81
2023-03-23T21:15:14.695Z,99418.16
2023-03-23T21:16:47.988Z,99411.06
2023-03-23T21:18:23.143Z,99396.22
2023-03-23T21:19:56.734Z,99407.50
2023-03-23T21:21:29.979Z,99408.31
2023-03-23T21:23:05.992Z,99397.00
2023-03-23T21:24:40.464Z,99391.97
2023-03-23T21:26:16.011Z,99394.06
2023-03-23T21:27:49.449Z,99386.69
2023-03-23T21:29:24.439Z,99407.09
2023-03-23T21:31:02.381Z,99407.09
2023-03-23T21:32:35.780Z,99407.09
2023-03-23T21:34:10.359Z,99400.16
2023-03-23T21:35:43.749Z,99402.97
2023-03-23T21:37:17.142Z,99402.06
2023-03-23T21:38:50.456Z,99395.16
2023-03-23T21:40:23.611Z,99395.00
2023-03-23T21:41:59.664Z,99390.00
2023-03-23T21:43:32.032Z,99392.09
2023-03-23T21:45:06.291Z,99376.66
2023-03-23T21:46:40.391Z,99385.41
2023-03-23T21:48:15.685Z,99387.22
2023-03-23T21:49:51.769Z,99388.13
2023-03-23T21:51:27.265Z,99394.16
2023-03-23T21:53:01.496Z,99391.50
2023-03-23T21:54:34.871Z,99395.81
2023-03-23T21:56:10.221Z,99392.28
2023-03-23T21:57:43.778Z,99374.88
2023-03-23T21:59:16.976Z,99392.25
2023-03-23T22:00:54.164Z,99391.41
2023-03-23T22:02:27.568Z,99394.03
2023-03-23T22:04:00.943Z,99388.84
2023-03-23T22:05:36.510Z,99387.00
2023-03-23T22:07:10.266Z,99394.94
2023-03-23T22:08:45.233Z,99389.88
2023-03-23T22:10:18.750Z,99384.66
2023-03-23T22:11:51.980Z,99397.63
2023-03-23T22:13:25.549Z,99395.91
2023-03-23T22:14:58.843Z,99383.84
2023-03-23T22:16:32.680Z,99394.50
2023-03-23T22:18:06.123Z,99384.00
2023-03-23T22:19:40.574Z,99388.41
2023-03-23T22:21:17.578Z,99391.84
2023-03-23T22:22:51.700Z,99385.69
2023-03-23T22:24:25.105Z,99390.09
2023-03-23T22:25:57.617Z,99393.59
2023-03-23T22:27:30.966Z,99381.38
2023-03-23T22:29:04.940Z,99390.09
2023-03-23T22:30:38.698Z,99392.72
2023-03-23T22:32:12.069Z,99390.88
2023-03-23T22:33:46.240Z,99377.81
2023-03-23T22:35:19.666Z,99381.34
2023-03-23T22:36:54.436Z,99382.28
2023-03-23T22:38:27.988Z,99379.81
2023-03-23T22:40:01.794Z,99395.63
2023-03-23T22:41:37.050Z,99400.13
2023-03-23T22:43:10.296Z,99394.91
2023-03-23T22:44:43.771Z,99401.84
2023-03-23T22:46:17.663Z,99401.03
2023-03-23T22:47:51.252Z,99400.19
2023-03-23T22:49:24.526Z,99394.97
2023-03-23T22:51:02.831Z,99392.38
2023-03-23T22:52:41.583Z,99393.28
2023-03-23T22:54:14.863Z,99389.84
2023-03-23T22:55:50.421Z,99387.25
2023-03-23T22:57:23.695Z,99398.56
2023-03-23T22:59:02.146Z,99388.97
2023-03-23T23:00:35.377Z,99393.28
2023-03-23T23:02:08.776Z,99389.75
2023-03-23T23:03:42.616Z,99387.13
2023-03-23T23:05:20.703Z,99403.69
2023-03-23T23:07:03.205Z,99395.81
2023-03-23T23:08:45.795Z,99401.84
2023-03-23T23:10:19.577Z,99397.50
2023-03-23T23:11:52.922Z,99388.00
2023-03-23T23:13:26.985Z,99404.50
2023-03-23T23:15:00.660Z,99400.13
2023-03-23T23:16:34.353Z,99401.84
2023-03-23T23:18:08.071Z,99402.59
2023-03-23T23:19:41.396Z,99406.09
2023-03-23T23:21:16.730Z,99405.22
2023-03-23T23:22:50.009Z,99406.97
2023-03-23T23:24:26.511Z,99408.72
2023-03-23T23:25:59.720Z,99387.03
2023-03-23T23:27:33.286Z,99405.38
2023-03-23T23:29:06.539Z,99400.13
2023-03-23T23:30:39.602Z,99403.56
2023-03-23T23:32:13.148Z,99403.69
2023-03-23T23:33:46.773Z,99390.00
2023-03-23T23:35:20.095Z,99397.06
2023-03-23T23:36:53.595Z,99405.09
2023-03-23T23:38:26.969Z,99399.09
2023-03-23T23:40:01.733Z,99400.03
2023-03-23T23:41:35.255Z,99402.56
2023-03-23T23:43:07.954Z,99399.97
2023-03-23T23:44:41.209Z,99395.63
2023-03-23T23:46:14.705Z,99389.66
2023-03-23T23:47:47.432Z,99390.59
2023-03-23T23:49:23.038Z,99389.72
2023-03-23T23:50:56.324Z,99392.34
2023-03-23T23:52:29.791Z,99386.34
2023-03-23T23:54:04.615Z,99395.91
2023-03-23T23:55:40.162Z,99388.97
2023-03-23T23:57:13.625Z,99391.63
2023-03-23T23:58:48.320Z,99391.63
